sensor_id;sensor_type;location;lat;lon;timestamp;P1;durP1;ratioP1;P2;durP2;ratioP2
60306;SDS011;46155;52.364;6.580;2022-09-21T03:02:52;8.63;;;8.00;;
60306;SDS011;46155;52.364;6.580;2022-09-21T03:05:17;9.37;;;8.67;;
60306;SDS011;46155;52.364;6.580;2022-09-21T03:07:43;11.47;;;10.87;;
60306;SDS011;46155;52.364;6.580;2022-09-21T03:10:08;8.90;;;8.30;;
60306;SDS011;46155;52.364;6.580;2022-09-21T03:12:34;10.77;;;9.73;;
60306;SDS011;46155;52.364;6.580;2022-09-21T03:14:59;10.63;;;9.87;;
60306;SDS011;46155;52.364;6.580;2022-09-21T03:17:25;10.50;;;9.77;;
60306;SDS011;46155;52.364;6.580;2022-09-21T03:19:51;10.70;;;10.00;;
60306;SDS011;46155;52.364;6.580;2022-09-21T03:22:19;10.60;;;9.50;;
60306;SDS011;46155;52.364;6.580;2022-09-21T03:24:45;9.80;;;8.90;;
60306;SDS011;46155;52.364;6.580;2022-09-21T03:27:11;8.17;;;7.60;;
60306;SDS011;46155;52.364;6.580;2022-09-21T03:29:38;11.07;;;8.87;;
60306;SDS011;46155;52.364;6.580;2022-09-21T03:32:03;9.70;;;8.90;;
60306;SDS011;46155;52.364;6.580;2022-09-21T03:34:29;10.17;;;9.47;;
60306;SDS011;46155;52.364;6.580;2022-09-21T03:36:55;9.57;;;8.87;;
60306;SDS011;46155;52.364;6.580;2022-09-21T03:39:21;10.83;;;10.10;;
60306;SDS011;46155;52.364;6.580;2022-09-21T03:41:46;10.23;;;9.50;;
60306;SDS011;46155;52.364;6.580;2022-09-21T03:44:12;11.17;;;10.37;;
60306;SDS011;46155;52.364;6.580;2022-09-21T03:46:39;10.13;;;9.43;;
60306;SDS011;46155;52.364;6.580;2022-09-21T03:49:04;10.00;;;9.20;;
60306;SDS011;46155;52.364;6.580;2022-09-21T03:51:30;9.03;;;8.33;;
60306;SDS011;46155;52.364;6.580;2022-09-21T03:53:55;8.83;;;8.23;;
60306;SDS011;46155;52.364;6.580;2022-09-21T03:56:21;9.43;;;8.83;;
60306;SDS011;46155;52.364;6.580;2022-09-21T03:58:46;10.13;;;9.53;;
60306;SDS011;46155;52.364;6.580;2022-09-21T04:01:11;10.03;;;9.33;;
60306;SDS011;46155;52.364;6.580;2022-09-21T04:03:37;9.83;;;9.13;;
60306;SDS011;46155;52.364;6.580;2022-09-21T04:06:07;10.80;;;9.97;;
60306;SDS011;46155;52.364;6.580;2022-09-21T04:08:36;11.03;;;10.23;;
60306;SDS011;46155;52.364;6.580;2022-09-21T04:11:07;10.07;;;9.47;;
60306;SDS011;46155;52.364;6.580;2022-09-21T04:13:34;10.30;;;9.70;;
60306;SDS011;46155;52.364;6.580;2022-09-21T04:15:59;10.60;;;9.93;;
60306;SDS011;46155;52.364;6.580;2022-09-21T04:18:25;10.40;;;9.63;;
60306;SDS011;46155;52.364;6.580;2022-09-21T04:20:50;10.27;;;9.67;;
60306;SDS011;46155;52.364;6.580;2022-09-21T04:23:15;11.00;;;10.20;;
60306;SDS011;46155;52.364;6.580;2022-09-21T04:25:41;11.70;;;10.87;;
60306;SDS011;46155;52.364;6.580;2022-09-21T04:28:07;10.50;;;10.00;;
60306;SDS011;46155;52.364;6.580;2022-09-21T04:30:33;9.73;;;9.07;;
60306;SDS011;46155;52.364;6.580;2022-09-21T04:32:59;10.90;;;9.90;;
60306;SDS011;46155;52.364;6.580;2022-09-21T04:35:24;10.37;;;9.60;;
60306;SDS011;46155;52.364;6.580;2022-09-21T04:37:53;11.30;;;10.70;;
60306;SDS011;46155;52.364;6.580;2022-09-21T04:40:19;10.47;;;9.77;;
60306;SDS011;46155;52.364;6.580;2022-09-21T04:42:44;9.90;;;9.30;;
60306;SDS011;46155;52.364;6.580;2022-09-21T04:45:15;9.47;;;8.97;;
60306;SDS011;46155;52.364;6.580;2022-09-21T04:47:40;9.93;;;9.33;;
60306;SDS011;46155;52.364;6.580;2022-09-21T04:50:06;10.37;;;9.47;;
60306;SDS011;46155;52.364;6.580;2022-09-21T04:52:31;8.77;;;8.27;;
60306;SDS011;46155;52.364;6.580;2022-09-21T04:54:57;10.43;;;9.63;;
60306;SDS011;46155;52.364;6.580;2022-09-21T04:57:23;9.97;;;9.27;;
60306;SDS011;46155;52.364;6.580;2022-09-21T04:59:48;10.23;;;9.40;;
60306;SDS011;46155;52.364;6.580;2022-09-21T05:02:14;10.43;;;9.70;;
60306;SDS011;46155;52.364;6.580;2022-09-21T05:04:39;10.07;;;9.13;;
60306;SDS011;46155;52.364;6.580;2022-09-21T05:07:04;9.37;;;8.50;;
60306;SDS011;46155;52.364;6.580;2022-09-21T05:09:30;10.63;;;9.93;;
60306;SDS011;46155;52.364;6.580;2022-09-21T05:12:14;12.17;;;11.27;;
60306;SDS011;46155;52.364;6.580;2022-09-21T05:14:39;10.83;;;10.13;;
60306;SDS011;46155;52.364;6.580;2022-09-21T05:17:08;7.87;;;7.37;;
60306;SDS011;46155;52.364;6.580;2022-09-21T05:19:33;9.47;;;8.87;;
60306;SDS011;46155;52.364;6.580;2022-09-21T05:21:58;9.37;;;8.67;;
60306;SDS011;46155;52.364;6.580;2022-09-21T05:24:24;8.40;;;7.80;;
60306;SDS011;46155;52.364;6.580;2022-09-21T05:26:49;7.43;;;6.93;;
60306;SDS011;46155;52.364;6.580;2022-09-21T05:29:14;9.37;;;7.40;;
60306;SDS011;46155;52.364;6.580;2022-09-21T05:31:44;7.07;;;6.63;;
60306;SDS011;46155;52.364;6.580;2022-09-21T05:39:20;6.90;;;6.50;;
60306;SDS011;46155;52.364;6.580;2022-09-21T05:41:45;7.13;;;6.53;;
60306;SDS011;46155;52.364;6.580;2022-09-21T05:44:11;8.17;;;7.60;;
60306;SDS011;46155;52.364;6.580;2022-09-21T05:46:39;8.87;;;8.30;;
60306;SDS011;46155;52.364;6.580;2022-09-21T05:52:23;8.57;;;7.87;;
60306;SDS011;46155;52.364;6.580;2022-09-21T05:55:04;8.63;;;8.13;;
60306;SDS011;46155;52.364;6.580;2022-09-21T05:57:41;8.90;;;8.27;;
60306;SDS011;46155;52.364;6.580;2022-09-21T06:00:22;7.63;;;7.03;;
60306;SDS011;46155;52.364;6.580;2022-09-21T06:03:09;8.93;;;8.23;;
60306;SDS011;46155;52.364;6.580;2022-09-21T06:05:50;10.17;;;9.37;;
60306;SDS011;46155;52.364;6.580;2022-09-21T06:08:15;10.73;;;9.87;;
60306;SDS011;46155;52.364;6.580;2022-09-21T06:10:41;10.77;;;9.90;;
60306;SDS011;46155;52.364;6.580;2022-09-21T06:13:06;11.70;;;9.50;;
60306;SDS011;46155;52.364;6.580;2022-09-21T06:15:32;9.40;;;8.50;;
60306;SDS011;46155;52.364;6.580;2022-09-21T06:18:02;10.27;;;9.27;;
60306;SDS011;46155;52.364;6.580;2022-09-21T06:20:31;11.47;;;10.43;;
60306;SDS011;46155;52.364;6.580;2022-09-21T06:23:00;10.80;;;9.90;;
60306;SDS011;46155;52.364;6.580;2022-09-21T06:25:27;11.43;;;10.53;;
60306;SDS011;46155;52.364;6.580;2022-09-21T06:27:52;11.67;;;10.43;;
60306;SDS011;46155;52.364;6.580;2022-09-21T06:30:18;10.57;;;9.77;;
60306;SDS011;46155;52.364;6.580;2022-09-21T06:32:43;10.93;;;10.13;;
60306;SDS011;46155;52.364;6.580;2022-09-21T06:35:08;9.67;;;8.97;;
60306;SDS011;46155;52.364;6.580;2022-09-21T06:37:33;10.10;;;9.30;;
60306;SDS011;46155;52.364;6.580;2022-09-21T06:39:59;8.87;;;8.20;;
60306;SDS011;46155;52.364;6.580;2022-09-21T06:42:25;9.23;;;8.60;;
60306;SDS011;46155;52.364;6.580;2022-09-21T06:44:51;11.60;;;10.27;;
60306;SDS011;46155;52.364;6.580;2022-09-21T06:47:17;11.30;;;10.07;;
60306;SDS011;46155;52.364;6.580;2022-09-21T06:49:42;10.13;;;8.83;;
60306;SDS011;46155;52.364;6.580;2022-09-21T06:52:07;15.83;;;10.70;;
60306;SDS011;46155;52.364;6.580;2022-09-21T06:54:33;11.30;;;10.13;;
60306;SDS011;46155;52.364;6.580;2022-09-21T06:56:58;13.30;;;11.90;;
60306;SDS011;46155;52.364;6.580;2022-09-21T06:59:23;10.17;;;9.30;;
60306;SDS011;46155;52.364;6.580;2022-09-21T07:01:49;10.40;;;9.50;;
60306;SDS011;46155;52.364;6.580;2022-09-21T07:04:14;13.77;;;10.43;;
60306;SDS011;46155;52.364;6.580;2022-09-21T07:06:39;15.20;;;9.93;;
60306;SDS011;46155;52.364;6.580;2022-09-21T07:09:05;10.47;;;9.57;;
60306;SDS011;46155;52.364;6.580;2022-09-21T07:11:30;11.20;;;10.20;;
60306;SDS011;46155;52.364;6.580;2022-09-21T07:13:55;10.03;;;9.13;;
60306;SDS011;46155;52.364;6.580;2022-09-21T07:16:22;12.20;;;9.60;;
60306;SDS011;46155;52.364;6.580;2022-09-21T07:18:48;11.63;;;10.63;;
60306;SDS011;46155;52.364;6.580;2022-09-21T07:21:14;9.63;;;8.83;;
60306;SDS011;46155;52.364;6.580;2022-09-21T07:23:40;11.50;;;10.07;;
60306;SDS011;46155;52.364;6.580;2022-09-21T07:26:06;9.97;;;9.27;;
60306;SDS011;46155;52.364;6.580;2022-09-21T07:28:35;10.43;;;9.63;;
60306;SDS011;46155;52.364;6.580;2022-09-21T07:33:32;11.63;;;9.90;;
60306;SDS011;46155;52.364;6.580;2022-09-21T07:35:58;10.53;;;9.17;;
60306;SDS011;46155;52.364;6.580;2022-09-21T07:38:24;9.20;;;7.90;;
60306;SDS011;46155;52.364;6.580;2022-09-21T07:40:50;9.50;;;8.57;;
60306;SDS011;46155;52.364;6.580;2022-09-21T07:43:15;9.27;;;8.57;;
60306;SDS011;46155;52.364;6.580;2022-09-21T07:45:41;9.33;;;8.60;;
60306;SDS011;46155;52.364;6.580;2022-09-21T07:48:07;8.77;;;7.97;;
60306;SDS011;46155;52.364;6.580;2022-09-21T07:50:33;8.23;;;7.53;;
60306;SDS011;46155;52.364;6.580;2022-09-21T07:52:59;9.77;;;7.13;;
60306;SDS011;46155;52.364;6.580;2022-09-21T07:55:26;7.87;;;7.17;;
60306;SDS011;46155;52.364;6.580;2022-09-21T07:57:51;8.33;;;7.73;;
60306;SDS011;46155;52.364;6.580;2022-09-21T08:00:35;6.93;;;6.43;;
60306;SDS011;46155;52.364;6.580;2022-09-21T08:03:01;7.73;;;7.00;;
60306;SDS011;46155;52.364;6.580;2022-09-21T08:05:27;7.90;;;7.00;;
60306;SDS011;46155;52.364;6.580;2022-09-21T08:07:55;7.73;;;7.03;;
60306;SDS011;46155;52.364;6.580;2022-09-21T08:10:21;9.70;;;8.90;;
60306;SDS011;46155;52.364;6.580;2022-09-21T08:12:48;7.47;;;6.60;;
60306;SDS011;46155;52.364;6.580;2022-09-21T08:15:13;7.43;;;6.77;;
60306;SDS011;46155;52.364;6.580;2022-09-21T08:17:39;8.27;;;7.63;;
60306;SDS011;46155;52.364;6.580;2022-09-21T08:20:04;8.13;;;7.40;;
60306;SDS011;46155;52.364;6.580;2022-09-21T08:22:30;8.50;;;7.80;;
60306;SDS011;46155;52.364;6.580;2022-09-21T08:24:56;10.27;;;6.60;;
60306;SDS011;46155;52.364;6.580;2022-09-21T08:27:21;7.27;;;6.80;;
60306;SDS011;46155;52.364;6.580;2022-09-21T08:29:49;8.20;;;7.50;;
60306;SDS011;46155;52.364;6.580;2022-09-21T08:32:14;6.97;;;6.47;;
60306;SDS011;46155;52.364;6.580;2022-09-21T08:34:40;7.83;;;7.13;;
60306;SDS011;46155;52.364;6.580;2022-09-21T08:37:05;8.20;;;7.37;;
60306;SDS011;46155;52.364;6.580;2022-09-21T08:39:30;10.17;;;6.83;;
60306;SDS011;46155;52.364;6.580;2022-09-21T08:41:59;9.73;;;7.33;;
60306;SDS011;46155;52.364;6.580;2022-09-21T08:44:34;7.60;;;7.00;;
60306;SDS011;46155;52.364;6.580;2022-09-21T08:47:02;8.60;;;6.47;;
60306;SDS011;46155;52.364;6.580;2022-09-21T08:49:34;6.77;;;6.27;;
60306;SDS011;46155;52.364;6.580;2022-09-21T08:52:04;6.43;;;5.93;;
60306;SDS011;46155;52.364;6.580;2022-09-21T08:54:42;7.10;;;6.50;;
60306;SDS011;46155;52.364;6.580;2022-09-21T08:57:15;7.23;;;6.83;;
60306;SDS011;46155;52.364;6.580;2022-09-21T08:59:43;7.37;;;6.67;;
60306;SDS011;46155;52.364;6.580;2022-09-21T09:07:43;11.03;;;5.60;;
60306;SDS011;46155;52.364;6.580;2022-09-21T09:10:35;6.93;;;5.67;;
60306;SDS011;46155;52.364;6.580;2022-09-21T09:19:04;9.23;;;5.10;;
60306;SDS011;46155;52.364;6.580;2022-09-21T09:21:01;8.03;;;5.53;;
60306;SDS011;46155;52.364;6.580;2022-09-21T09:26:05;6.57;;;5.83;;
60306;SDS011;46155;52.364;6.580;2022-09-21T09:28:35;7.23;;;6.03;;
60306;SDS011;46155;52.364;6.580;2022-09-21T09:31:27;7.83;;;5.67;;
60306;SDS011;46155;52.364;6.580;2022-09-21T09:34:00;6.00;;;4.73;;
60306;SDS011;46155;52.364;6.580;2022-09-21T09:36:35;7.00;;;5.30;;
60306;SDS011;46155;52.364;6.580;2022-09-21T09:39:09;6.33;;;4.40;;
60306;SDS011;46155;52.364;6.580;2022-09-21T09:49:33;7.10;;;5.77;;
60306;SDS011;46155;52.364;6.580;2022-09-21T09:52:07;12.50;;;5.73;;
60306;SDS011;46155;52.364;6.580;2022-09-21T09:54:35;11.80;;;4.90;;
60306;SDS011;46155;52.364;6.580;2022-09-21T09:57:02;6.50;;;5.17;;
60306;SDS011;46155;52.364;6.580;2022-09-21T09:59:36;7.27;;;5.30;;
60306;SDS011;46155;52.364;6.580;2022-09-21T10:02:17;6.90;;;4.90;;
60306;SDS011;46155;52.364;6.580;2022-09-21T10:05:02;7.33;;;5.37;;
60306;SDS011;46155;52.364;6.580;2022-09-21T10:07:39;5.90;;;5.40;;
60306;SDS011;46155;52.364;6.580;2022-09-21T10:10:21;5.43;;;4.80;;
60306;SDS011;46155;52.364;6.580;2022-09-21T10:12:52;5.13;;;4.73;;
60306;SDS011;46155;52.364;6.580;2022-09-21T10:15:18;11.43;;;5.17;;
60306;SDS011;46155;52.364;6.580;2022-09-21T10:17:45;5.00;;;4.60;;
60306;SDS011;46155;52.364;6.580;2022-09-21T10:20:16;8.00;;;5.10;;
60306;SDS011;46155;52.364;6.580;2022-09-21T10:22:45;5.10;;;4.67;;
60306;SDS011;46155;52.364;6.580;2022-09-21T10:25:17;5.43;;;4.93;;
60306;SDS011;46155;52.364;6.580;2022-09-21T10:27:45;6.30;;;4.93;;
60306;SDS011;46155;52.364;6.580;2022-09-21T10:32:54;7.30;;;4.60;;
60306;SDS011;46155;52.364;6.580;2022-09-21T10:35:21;15.73;;;6.47;;
60306;SDS011;46155;52.364;6.580;2022-09-21T10:37:47;5.93;;;5.33;;
60306;SDS011;46155;52.364;6.580;2022-09-21T10:42:49;5.67;;;5.17;;
60306;SDS011;46155;52.364;6.580;2022-09-21T10:45:19;7.20;;;5.30;;
60306;SDS011;46155;52.364;6.580;2022-09-21T10:47:54;5.70;;;5.20;;
60306;SDS011;46155;52.364;6.580;2022-09-21T10:50:28;5.60;;;5.10;;
60306;SDS011;46155;52.364;6.580;2022-09-21T10:55:35;13.77;;;4.93;;
60306;SDS011;46155;52.364;6.580;2022-09-21T10:58:05;5.83;;;4.93;;
60306;SDS011;46155;52.364;6.580;2022-09-21T11:00:40;7.50;;;5.43;;
60306;SDS011;46155;52.364;6.580;2022-09-21T11:05:55;7.93;;;5.20;;
60306;SDS011;46155;52.364;6.580;2022-09-21T11:08:44;9.10;;;5.17;;
60306;SDS011;46155;52.364;6.580;2022-09-21T11:14:00;5.30;;;4.90;;
60306;SDS011;46155;52.364;6.580;2022-09-21T11:16:36;6.77;;;4.73;;
60306;SDS011;46155;52.364;6.580;2022-09-21T11:21:44;6.27;;;5.50;;
60306;SDS011;46155;52.364;6.580;2022-09-21T11:24:37;5.13;;;4.73;;
60306;SDS011;46155;52.364;6.580;2022-09-21T11:27:12;5.17;;;4.77;;
60306;SDS011;46155;52.364;6.580;2022-09-21T11:29:54;8.37;;;4.73;;
60306;SDS011;46155;52.364;6.580;2022-09-21T11:35:05;4.77;;;4.50;;
60306;SDS011;46155;52.364;6.580;2022-09-21T11:40:42;9.17;;;4.87;;
60306;SDS011;46155;52.364;6.580;2022-09-21T11:45:59;5.30;;;4.80;;
60306;SDS011;46155;52.364;6.580;2022-09-21T11:48:42;9.27;;;5.10;;
60306;SDS011;46155;52.364;6.580;2022-09-21T11:51:33;4.80;;;4.40;;
60306;SDS011;46155;52.364;6.580;2022-09-21T12:07:55;4.90;;;4.40;;
60306;SDS011;46155;52.364;6.580;2022-09-21T12:14:12;6.83;;;4.53;;
60306;SDS011;46155;52.364;6.580;2022-09-21T12:17:09;5.63;;;4.50;;
60306;SDS011;46155;52.364;6.580;2022-09-21T12:19:40;4.43;;;4.07;;
60306;SDS011;46155;52.364;6.580;2022-09-21T12:22:28;7.63;;;4.73;;
60306;SDS011;46155;52.364;6.580;2022-09-21T12:27:58;6.40;;;3.97;;
60306;SDS011;46155;52.364;6.580;2022-09-21T12:30:49;8.73;;;5.00;;
60306;SDS011;46155;52.364;6.580;2022-09-21T12:33:36;5.17;;;4.67;;
60306;SDS011;46155;52.364;6.580;2022-09-21T12:36:07;4.60;;;4.30;;
60306;SDS011;46155;52.364;6.580;2022-09-21T12:38:44;7.40;;;4.10;;
60306;SDS011;46155;52.364;6.580;2022-09-21T12:46:42;6.33;;;4.27;;
60306;SDS011;46155;52.364;6.580;2022-09-21T12:49:14;5.03;;;4.57;;
60306;SDS011;46155;52.364;6.580;2022-09-21T12:51:53;4.00;;;3.80;;
60306;SDS011;46155;52.364;6.580;2022-09-21T13:00:04;4.10;;;3.90;;
60306;SDS011;46155;52.364;6.580;2022-09-21T13:05:37;4.23;;;4.03;;
60306;SDS011;46155;52.364;6.580;2022-09-21T13:08:14;3.80;;;3.63;;
60306;SDS011;46155;52.364;6.580;2022-09-21T13:10:45;4.30;;;4.07;;
60306;SDS011;46155;52.364;6.580;2022-09-21T13:15:57;4.80;;;3.80;;
60306;SDS011;46155;52.364;6.580;2022-09-21T13:20:52;3.70;;;3.50;;
60306;SDS011;46155;52.364;6.580;2022-09-21T13:23:21;3.90;;;3.70;;
60306;SDS011;46155;52.364;6.580;2022-09-21T13:26:01;4.57;;;4.20;;
60306;SDS011;46155;52.364;6.580;2022-09-21T13:31:41;3.40;;;3.20;;
60306;SDS011;46155;52.364;6.580;2022-09-21T13:34:24;8.73;;;3.50;;
60306;SDS011;46155;52.364;6.580;2022-09-21T13:39:42;4.10;;;3.83;;
60306;SDS011;46155;52.364;6.580;2022-09-21T13:43:07;3.63;;;3.43;;
60306;SDS011;46155;52.364;6.580;2022-09-21T13:47:40;3.97;;;3.67;;
60306;SDS011;46155;52.364;6.580;2022-09-21T13:50:10;4.27;;;3.87;;
60306;SDS011;46155;52.364;6.580;2022-09-21T13:52:44;9.97;;;3.90;;
60306;SDS011;46155;52.364;6.580;2022-09-21T13:55:30;3.63;;;3.40;;
60306;SDS011;46155;52.364;6.580;2022-09-21T13:58:02;3.83;;;3.60;;
60306;SDS011;46155;52.364;6.580;2022-09-21T14:00:39;4.97;;;4.30;;
60306;SDS011;46155;52.364;6.580;2022-09-21T14:03:19;4.40;;;4.10;;
60306;SDS011;46155;52.364;6.580;2022-09-21T14:05:49;7.50;;;3.80;;
60306;SDS011;46155;52.364;6.580;2022-09-21T14:08:22;8.43;;;3.97;;
60306;SDS011;46155;52.364;6.580;2022-09-21T14:19:02;4.47;;;4.27;;
60306;SDS011;46155;52.364;6.580;2022-09-21T14:30:13;6.33;;;4.40;;
60306;SDS011;46155;52.364;6.580;2022-09-21T14:32:45;4.57;;;4.30;;
60306;SDS011;46155;52.364;6.580;2022-09-21T14:35:15;4.43;;;4.03;;
60306;SDS011;46155;52.364;6.580;2022-09-21T14:37:56;5.83;;;4.53;;
60306;SDS011;46155;52.364;6.580;2022-09-21T14:40:26;4.93;;;4.30;;
60306;SDS011;46155;52.364;6.580;2022-09-21T14:42:56;5.37;;;4.53;;
60306;SDS011;46155;52.364;6.580;2022-09-21T14:51:44;7.07;;;3.90;;
60306;SDS011;46155;52.364;6.580;2022-09-21T15:02:38;6.03;;;4.00;;
60306;SDS011;46155;52.364;6.580;2022-09-21T15:10:46;4.50;;;3.83;;
60306;SDS011;46155;52.364;6.580;2022-09-21T15:14:05;3.90;;;3.70;;
60306;SDS011;46155;52.364;6.580;2022-09-21T15:16:30;7.10;;;4.07;;
60306;SDS011;46155;52.364;6.580;2022-09-21T15:19:10;6.67;;;4.13;;
60306;SDS011;46155;52.364;6.580;2022-09-21T15:21:45;4.30;;;4.00;;
60306;SDS011;46155;52.364;6.580;2022-09-21T15:24:20;3.73;;;3.53;;
60306;SDS011;46155;52.364;6.580;2022-09-21T15:26:54;4.40;;;4.07;;
60306;SDS011;46155;52.364;6.580;2022-09-21T15:29:31;4.43;;;3.40;;
60306;SDS011;46155;52.364;6.580;2022-09-21T15:31:58;3.97;;;3.57;;
60306;SDS011;46155;52.364;6.580;2022-09-21T15:34:24;4.00;;;3.80;;
60306;SDS011;46155;52.364;6.580;2022-09-21T15:36:50;6.33;;;3.87;;
60306;SDS011;46155;52.364;6.580;2022-09-21T15:39:34;4.47;;;4.10;;
60306;SDS011;46155;52.364;6.580;2022-09-21T15:44:31;3.90;;;3.70;;
60306;SDS011;46155;52.364;6.580;2022-09-21T15:46:57;5.73;;;3.80;;
60306;SDS011;46155;52.364;6.580;2022-09-21T15:49:27;3.67;;;3.47;;
60306;SDS011;46155;52.364;6.580;2022-09-21T15:54:47;3.90;;;3.23;;
60306;SDS011;46155;52.364;6.580;2022-09-21T15:57:50;3.90;;;3.70;;
60306;SDS011;46155;52.364;6.580;2022-09-21T16:02:40;4.43;;;3.77;;
60306;SDS011;46155;52.364;6.580;2022-09-21T16:05:14;4.00;;;3.80;;
60306;SDS011;46155;52.364;6.580;2022-09-21T16:07:40;4.10;;;3.80;;
60306;SDS011;46155;52.364;6.580;2022-09-21T16:10:33;4.03;;;3.83;;
60306;SDS011;46155;52.364;6.580;2022-09-21T16:13:02;3.50;;;3.40;;
60306;SDS011;46155;52.364;6.580;2022-09-21T16:18:50;4.10;;;3.80;;
60306;SDS011;46155;52.364;6.580;2022-09-21T16:21:27;3.70;;;3.50;;
60306;SDS011;46155;52.364;6.580;2022-09-21T16:23:57;4.37;;;3.60;;
60306;SDS011;46155;52.364;6.580;2022-09-21T16:26:36;3.43;;;3.23;;
60306;SDS011;46155;52.364;6.580;2022-09-21T16:29:15;3.63;;;3.53;;
60306;SDS011;46155;52.364;6.580;2022-09-21T16:31:43;3.47;;;3.27;;
60306;SDS011;46155;52.364;6.580;2022-09-21T16:34:18;3.70;;;3.50;;
60306;SDS011;46155;52.364;6.580;2022-09-21T16:36:47;4.60;;;3.50;;
60306;SDS011;46155;52.364;6.580;2022-09-21T16:39:14;3.83;;;3.57;;
60306;SDS011;46155;52.364;6.580;2022-09-21T16:41:54;3.87;;;3.67;;
60306;SDS011;46155;52.364;6.580;2022-09-21T16:44:24;3.97;;;3.77;;
60306;SDS011;46155;52.364;6.580;2022-09-21T16:46:58;4.17;;;3.87;;
60306;SDS011;46155;52.364;6.580;2022-09-21T16:49:26;3.80;;;3.70;;
60306;SDS011;46155;52.364;6.580;2022-09-21T16:51:55;3.90;;;3.70;;
60306;SDS011;46155;52.364;6.580;2022-09-21T16:54:21;4.10;;;3.80;;
60306;SDS011;46155;52.364;6.580;2022-09-21T16:56:51;4.20;;;4.00;;
60306;SDS011;46155;52.364;6.580;2022-09-21T16:59:19;4.07;;;3.87;;
60306;SDS011;46155;52.364;6.580;2022-09-21T17:01:47;3.73;;;3.53;;
60306;SDS011;46155;52.364;6.580;2022-09-21T17:04:14;3.50;;;3.40;;
60306;SDS011;46155;52.364;6.580;2022-09-21T17:06:43;4.10;;;3.70;;
60306;SDS011;46155;52.364;6.580;2022-09-21T17:09:14;4.57;;;4.23;;
60306;SDS011;46155;52.364;6.580;2022-09-21T17:11:41;4.10;;;3.80;;
60306;SDS011;46155;52.364;6.580;2022-09-21T17:14:09;4.33;;;4.00;;
60306;SDS011;46155;52.364;6.580;2022-09-21T17:16:37;5.10;;;3.70;;
60306;SDS011;46155;52.364;6.580;2022-09-21T17:19:02;3.90;;;3.70;;
60306;SDS011;46155;52.364;6.580;2022-09-21T17:21:27;5.37;;;4.27;;
60306;SDS011;46155;52.364;6.580;2022-09-21T17:23:54;4.80;;;4.57;;
60306;SDS011;46155;52.364;6.580;2022-09-21T17:26:19;5.87;;;4.63;;
60306;SDS011;46155;52.364;6.580;2022-09-21T17:28:45;4.77;;;4.43;;
60306;SDS011;46155;52.364;6.580;2022-09-21T17:31:11;4.77;;;4.47;;
60306;SDS011;46155;52.364;6.580;2022-09-21T17:33:37;4.80;;;4.60;;
60306;SDS011;46155;52.364;6.580;2022-09-21T17:36:03;5.77;;;4.63;;
60306;SDS011;46155;52.364;6.580;2022-09-21T17:38:32;8.40;;;5.03;;
60306;SDS011;46155;52.364;6.580;2022-09-21T17:40:59;5.80;;;5.40;;
60306;SDS011;46155;52.364;6.580;2022-09-21T17:43:39;6.10;;;5.70;;
60306;SDS011;46155;52.364;6.580;2022-09-21T17:46:29;5.87;;;5.47;;
60306;SDS011;46155;52.364;6.580;2022-09-21T17:48:55;7.00;;;6.27;;
60306;SDS011;46155;52.364;6.580;2022-09-21T17:51:21;19.37;;;6.30;;
60306;SDS011;46155;52.364;6.580;2022-09-21T17:54:05;12.27;;;6.03;;
60306;SDS011;46155;52.364;6.580;2022-09-21T17:59:07;13.33;;;5.73;;
60306;SDS011;46155;52.364;6.580;2022-09-21T18:01:56;8.50;;;5.93;;
60306;SDS011;46155;52.364;6.580;2022-09-21T18:04:24;10.90;;;5.83;;
60306;SDS011;46155;52.364;6.580;2022-09-21T18:06:51;7.80;;;6.13;;
60306;SDS011;46155;52.364;6.580;2022-09-21T18:09:17;7.73;;;6.30;;
60306;SDS011;46155;52.364;6.580;2022-09-21T18:17:30;8.77;;;8.07;;
60306;SDS011;46155;52.364;6.580;2022-09-21T18:20:28;8.17;;;7.57;;
60306;SDS011;46155;52.364;6.580;2022-09-21T18:23:09;7.27;;;6.67;;
60306;SDS011;46155;52.364;6.580;2022-09-21T18:25:43;8.13;;;7.40;;
60306;SDS011;46155;52.364;6.580;2022-09-21T18:33:58;8.97;;;7.50;;
60306;SDS011;46155;52.364;6.580;2022-09-21T18:42:01;7.20;;;6.70;;
60306;SDS011;46155;52.364;6.580;2022-09-21T18:44:42;9.00;;;6.50;;
60306;SDS011;46155;52.364;6.580;2022-09-21T18:50:06;6.17;;;5.70;;
60306;SDS011;46155;52.364;6.580;2022-09-21T18:55:37;7.27;;;6.57;;
60306;SDS011;46155;52.364;6.580;2022-09-21T18:58:03;8.33;;;7.67;;
60306;SDS011;46155;52.364;6.580;2022-09-21T19:00:29;8.03;;;7.53;;
60306;SDS011;46155;52.364;6.580;2022-09-21T19:02:58;8.00;;;7.47;;
60306;SDS011;46155;52.364;6.580;2022-09-21T19:05:25;7.10;;;6.67;;
60306;SDS011;46155;52.364;6.580;2022-09-21T19:10:38;7.97;;;7.50;;
60306;SDS011;46155;52.364;6.580;2022-09-21T19:19:54;7.47;;;7.17;;
60306;SDS011;46155;52.364;6.580;2022-09-21T19:25:30;9.20;;;8.17;;
60306;SDS011;46155;52.364;6.580;2022-09-21T19:28:09;7.60;;;7.10;;
60306;SDS011;46155;52.364;6.580;2022-09-21T19:30:40;10.13;;;9.20;;
60306;SDS011;46155;52.364;6.580;2022-09-21T19:33:28;11.10;;;9.87;;
60306;SDS011;46155;52.364;6.580;2022-09-21T19:35:53;11.63;;;10.50;;
60306;SDS011;46155;52.364;6.580;2022-09-21T19:38:19;10.93;;;9.97;;
60306;SDS011;46155;52.364;6.580;2022-09-21T19:40:45;9.90;;;9.30;;
60306;SDS011;46155;52.364;6.580;2022-09-21T19:48:48;9.07;;;8.27;;
60306;SDS011;46155;52.364;6.580;2022-09-21T19:53:43;10.97;;;7.60;;
60306;SDS011;46155;52.364;6.580;2022-09-21T19:56:28;7.60;;;7.10;;
60306;SDS011;46155;52.364;6.580;2022-09-21T19:59:13;8.03;;;7.47;;
60306;SDS011;46155;52.364;6.580;2022-09-21T20:02:00;8.37;;;7.77;;
60306;SDS011;46155;52.364;6.580;2022-09-21T20:04:42;9.07;;;8.23;;
60306;SDS011;46155;52.364;6.580;2022-09-21T20:07:36;8.43;;;7.83;;
60306;SDS011;46155;52.364;6.580;2022-09-21T20:12:48;11.37;;;8.77;;
60306;SDS011;46155;52.364;6.580;2022-09-21T20:18:24;9.57;;;8.80;;
60306;SDS011;46155;52.364;6.580;2022-09-21T20:21:01;8.83;;;8.03;;
60306;SDS011;46155;52.364;6.580;2022-09-21T20:23:27;9.97;;;9.07;;
60306;SDS011;46155;52.364;6.580;2022-09-21T20:25:59;10.47;;;9.33;;
60306;SDS011;46155;52.364;6.580;2022-09-21T20:28:29;10.53;;;9.17;;
60306;SDS011;46155;52.364;6.580;2022-09-21T20:30:55;9.20;;;8.63;;
60306;SDS011;46155;52.364;6.580;2022-09-21T20:33:21;10.20;;;9.50;;
60306;SDS011;46155;52.364;6.580;2022-09-21T20:35:48;9.97;;;9.20;;
60306;SDS011;46155;52.364;6.580;2022-09-21T20:38:16;9.13;;;8.63;;
60306;SDS011;46155;52.364;6.580;2022-09-21T20:40:42;9.10;;;8.20;;
60306;SDS011;46155;52.364;6.580;2022-09-21T20:43:09;10.77;;;9.73;;
60306;SDS011;46155;52.364;6.580;2022-09-21T20:45:35;10.37;;;9.40;;
60306;SDS011;46155;52.364;6.580;2022-09-21T20:48:01;10.03;;;9.33;;
60306;SDS011;46155;52.364;6.580;2022-09-21T20:50:43;10.07;;;9.27;;
60306;SDS011;46155;52.364;6.580;2022-09-21T20:53:15;9.83;;;9.20;;
60306;SDS011;46155;52.364;6.580;2022-09-21T20:55:50;9.57;;;9.07;;
60306;SDS011;46155;52.364;6.580;2022-09-21T20:58:17;10.53;;;9.77;;
60306;SDS011;46155;52.364;6.580;2022-09-21T21:00:42;9.67;;;8.97;;
60306;SDS011;46155;52.364;6.580;2022-09-21T21:03:09;8.90;;;8.40;;
60306;SDS011;46155;52.364;6.580;2022-09-21T21:05:36;8.50;;;8.00;;
60306;SDS011;46155;52.364;6.580;2022-09-21T21:08:02;9.77;;;8.70;;
60306;SDS011;46155;52.364;6.580;2022-09-21T21:10:28;8.67;;;7.97;;
60306;SDS011;46155;52.364;6.580;2022-09-21T21:12:56;9.53;;;8.67;;
60306;SDS011;46155;52.364;6.580;2022-09-21T21:15:22;8.80;;;8.10;;
60306;SDS011;46155;52.364;6.580;2022-09-21T21:17:48;9.07;;;8.50;;
60306;SDS011;46155;52.364;6.580;2022-09-21T21:20:13;8.80;;;8.20;;
60306;SDS011;46155;52.364;6.580;2022-09-21T21:22:43;9.90;;;9.20;;
60306;SDS011;46155;52.364;6.580;2022-09-21T21:25:09;9.93;;;9.33;;
60306;SDS011;46155;52.364;6.580;2022-09-21T21:27:35;9.73;;;9.13;;
60306;SDS011;46155;52.364;6.580;2022-09-21T21:30:00;9.87;;;9.37;;